Time;durP1;ratioP1;P1;durP2;ratioP2;P2;SDS_P1;SDS_P2;PMS_P1;PMS_P2;Temp;Humidity;BMP_temperature;BMP_pressure;BME280_temperature;BME280_humidity;BME280_pressure;Samples;Min_cycle;Max_cycle;Signal;HPM_P1;HPM_P2
2023/09/02 00:00:38;;;;;;;9.30;7.72;;;16.40;99.90;;;;;;5087360;28;20492;-59
2023/09/02 00:03:24;;;;;;;9.60;8.57;;;16.40;99.90;;;;;;5090791;28;20554;-58
2023/09/02 00:06:09;;;;;;;10.52;7.68;;;16.40;99.90;;;;;;5074504;28;20093;-60
2023/09/02 00:08:55;;;;;;;8.43;7.63;;;16.40;99.90;;;;;;5087357;28;20067;-59
2023/09/02 00:11:41;;;;;;;33.10;24.08;;;16.30;99.90;;;;;;5065888;28;20024;-58
2023/09/02 00:14:27;;;;;;;59.53;37.28;;;16.30;99.90;;;;;;5089357;28;20529;-58
2023/09/02 00:17:13;;;;;;;29.45;20.80;;;16.20;99.90;;;;;;5073040;28;20481;-58
2023/09/02 00:19:59;;;;;;;12.48;10.77;;;16.20;99.90;;;;;;5084160;28;20131;-59
2023/09/02 00:22:45;;;;;;;12.25;9.73;;;16.20;99.90;;;;;;5086846;28;20071;-55
2023/09/02 00:25:31;;;;;;;17.77;13.98;;;16.10;99.90;;;;;;5089954;28;20017;-56
2023/09/02 00:28:17;;;;;;;34.30;22.50;;;16.10;99.90;;;;;;5070276;28;20062;-59
2023/09/02 00:31:03;;;;;;;40.13;26.90;;;16.10;99.90;;;;;;5070915;28;20074;-59
2023/09/02 00:33:49;;;;;;;27.88;20.20;;;16.10;99.90;;;;;;5084074;28;20058;-57
2023/09/02 00:36:35;;;;;;;15.80;10.60;;;16.10;99.90;;;;;;5088751;28;20562;-55
2023/09/02 00:39:21;;;;;;;8.35;7.28;;;16.10;99.90;;;;;;5089403;28;20458;-58
2023/09/02 00:42:09;;;;;;;7.70;6.90;;;16.00;99.90;;;;;;5090254;28;20557;-57
2023/09/02 00:44:55;;;;;;;8.18;6.90;;;16.00;99.90;;;;;;5085690;28;20176;-56
2023/09/02 00:47:41;;;;;;;7.88;6.57;;;15.90;99.90;;;;;;5088770;28;20039;-52
2023/09/02 00:50:27;;;;;;;8.27;6.85;;;15.90;99.90;;;;;;5071561;28;20025;-54
2023/09/02 00:53:13;;;;;;;7.32;6.63;;;15.90;99.90;;;;;;5058041;28;20021;-56
2023/09/02 00:56:00;;;;;;;7.38;6.68;;;15.90;99.90;;;;;;5091400;28;20028;-60
2023/09/02 00:58:46;;;;;;;8.25;7.47;;;15.80;99.90;;;;;;5080640;28;20123;-59
2023/09/02 01:01:33;;;;;;;9.13;7.82;;;15.90;99.90;;;;;;5075119;28;20056;-58
2023/09/02 01:04:21;;;;;;;8.05;7.13;;;15.80;99.90;;;;;;5088669;28;20024;-60
2023/09/02 01:07:08;;;;;;;9.18;7.88;;;15.80;99.90;;;;;;5089835;28;20033;-56
2023/09/02 01:09:55;;;;;;;8.35;7.47;;;15.80;99.90;;;;;;5089507;28;20052;-55
2023/09/02 01:12:41;;;;;;;7.05;6.30;;;15.70;99.90;;;;;;5075375;28;20031;-57
2023/09/02 01:15:27;;;;;;;7.85;7.15;;;15.70;99.90;;;;;;5090511;28;20020;-59
2023/09/02 01:18:13;;;;;;;7.53;6.82;;;15.70;99.90;;;;;;5088091;28;20031;-57
2023/09/02 01:21:16;;;;;;;8.07;7.28;;;15.70;99.90;;;;;;5086471;28;20032;-58
2023/09/02 01:24:20;;;;;;;11.48;7.35;;;15.70;99.90;;;;;;5069213;28;20071;-55
2023/09/02 01:27:24;;;;;;;7.53;6.80;;;15.70;99.90;;;;;;5069306;28;20396;-55
2023/09/02 01:30:15;;;;;;;7.28;6.57;;;15.70;99.90;;;;;;5070693;28;20044;-56
2023/09/02 01:33:04;;;;;;;7.95;6.60;;;15.70;99.90;;;;;;5076021;28;20043;-56
2023/09/02 01:35:51;;;;;;;7.20;6.50;;;15.70;99.90;;;;;;5089677;28;20024;-58
2023/09/02 01:38:38;;;;;;;7.50;6.80;;;15.70;99.90;;;;;;5089644;28;20058;-57
2023/09/02 01:41:25;;;;;;;8.30;6.47;;;15.70;99.90;;;;;;5089586;28;20031;-57
2023/09/02 01:44:13;;;;;;;7.35;6.65;;;15.60;99.90;;;;;;5090340;28;20036;-55
2023/09/02 01:47:01;;;;;;;8.60;6.60;;;15.70;99.90;;;;;;5088584;28;20396;-57
2023/09/02 01:49:47;;;;;;;25.95;17.67;;;15.60;99.90;;;;;;5088238;28;20032;-57
2023/09/02 01:52:33;;;;;;;35.63;25.48;;;15.60;99.90;;;;;;5089123;28;20107;-58
2023/09/02 01:55:20;;;;;;;13.95;11.40;;;15.60;99.90;;;;;;5091694;28;20028;-54
2023/09/02 01:58:06;;;;;;;8.85;7.38;;;15.60;99.90;;;;;;5092114;28;20582;-55
2023/09/02 02:00:52;;;;;;;8.10;7.05;;;15.60;99.90;;;;;;5088409;28;20024;-58
2023/09/02 02:03:44;;;;;;;7.50;6.70;;;15.50;99.90;;;;;;5091202;28;20500;-58
2023/09/02 02:06:31;;;;;;;6.65;5.93;;;15.50;99.90;;;;;;5090821;28;20032;-58
2023/09/02 02:09:29;;;;;;;7.78;6.97;;;15.50;99.90;;;;;;5092649;28;20020;-53
2023/09/02 02:12:15;;;;;;;6.65;5.95;;;15.50;99.90;;;;;;5093609;28;20398;-60
2023/09/02 02:15:01;;;;;;;7.18;6.47;;;15.50;99.90;;;;;;5086251;28;20100;-54
2023/09/02 02:17:47;;;;;;;7.45;6.75;;;15.50;99.90;;;;;;5090346;28;20032;-54
2023/09/02 02:20:44;;;;;;;8.52;7.40;;;15.40;99.90;;;;;;5068589;28;20040;-56
2023/09/02 02:23:30;;;;;;;9.05;7.47;;;15.40;99.90;;;;;;5084034;28;20034;-55
2023/09/02 02:26:16;;;;;;;19.60;8.20;;;15.20;99.90;;;;;;5089673;28;20024;-49
2023/09/02 02:29:02;;;;;;;10.43;8.00;;;15.20;99.90;;;;;;5069742;28;20542;-51
2023/09/02 02:31:49;;;;;;;8.75;7.85;;;15.30;99.90;;;;;;5084434;28;20032;-55
2023/09/02 02:34:35;;;;;;;11.43;8.13;;;15.20;99.90;;;;;;5076986;28;20025;-53
2023/09/02 02:37:21;;;;;;;21.85;8.77;;;15.20;99.90;;;;;;5076597;28;20032;-54
2023/09/02 02:40:07;;;;;;;9.52;7.07;;;15.10;99.90;;;;;;5086619;28;20028;-51
2023/09/02 02:42:56;;;;;;;9.75;7.32;;;15.10;99.90;;;;;;5081713;28;20055;-53
2023/09/02 02:45:42;;;;;;;7.78;6.97;;;15.10;99.90;;;;;;5078971;28;20021;-54
2023/09/02 02:48:30;;;;;;;7.22;6.53;;;15.10;99.90;;;;;;5066991;28;20078;-55
2023/09/02 02:51:16;;;;;;;7.90;6.95;;;15.10;99.90;;;;;;5089894;28;20028;-56
2023/09/02 02:54:02;;;;;;;9.45;8.50;;;15.10;99.90;;;;;;5085848;28;20027;-51
2023/09/02 02:56:47;;;;;;;25.08;19.98;;;15.10;99.90;;;;;;5091918;28;20055;-50
2023/09/02 02:59:33;;;;;;;13.77;10.95;;;15.10;99.90;;;;;;5077451;28;20028;-49
2023/09/02 03:02:19;;;;;;;7.72;7.03;;;15.10;99.90;;;;;;5091490;28;20118;-47
2023/09/02 03:05:05;;;;;;;8.35;7.45;;;15.00;99.90;;;;;;5071178;28;20448;-49
2023/09/02 03:07:51;;;;;;;8.23;6.72;;;15.00;99.90;;;;;;5072021;28;20021;-50
2023/09/02 03:10:37;;;;;;;6.18;5.57;;;15.00;99.90;;;;;;5030341;28;20024;-51
2023/09/02 03:13:28;;;;;;;6.75;6.05;;;15.00;99.90;;;;;;5075298;28;20028;-50
2023/09/02 03:16:14;;;;;;;5.88;5.38;;;15.00;99.90;;;;;;5094121;28;20638;-53
2023/09/02 03:19:00;;;;;;;6.95;6.35;;;15.00;99.90;;;;;;5085867;28;20031;-52
2023/09/02 03:21:46;;;;;;;6.22;5.63;;;14.90;99.90;;;;;;5091403;28;20031;-52
2023/09/02 03:24:32;;;;;;;6.55;5.30;;;15.00;99.90;;;;;;5075581;28;20032;-51
2023/09/02 03:27:18;;;;;;;6.43;5.82;;;15.00;99.90;;;;;;5079864;28;20032;-51
2023/09/02 03:30:05;;;;;;;6.47;5.88;;;15.00;99.90;;;;;;5090351;28;20039;-47
2023/09/02 03:32:51;;;;;;;7.15;6.28;;;15.00;99.90;;;;;;5092129;28;20046;-58
2023/09/02 03:35:38;;;;;;;6.50;5.90;;;14.90;99.90;;;;;;5075541;28;20020;-54
2023/09/02 03:38:24;;;;;;;7.75;7.05;;;14.90;99.90;;;;;;5090612;28;20026;-50
2023/09/02 03:41:17;;;;;;;6.90;6.30;;;14.90;99.90;;;;;;5089900;28;20507;-51
2023/09/02 03:44:04;;;;;;;7.18;6.57;;;14.90;99.90;;;;;;5089858;28;20596;-50
2023/09/02 03:46:50;;;;;;;6.95;6.25;;;14.90;99.90;;;;;;5090322;28;20035;-58
2023/09/02 03:49:36;;;;;;;8.15;6.47;;;14.90;99.90;;;;;;5090453;28;20043;-52
2023/09/02 03:52:22;;;;;;;9.07;8.18;;;14.80;99.90;;;;;;5075331;28;20054;-56
2023/09/02 03:55:08;;;;;;;9.60;8.60;;;14.80;99.90;;;;;;5074263;28;20036;-54
2023/09/02 03:57:54;;;;;;;7.85;7.13;;;14.80;99.90;;;;;;5071522;28;20032;-54
2023/09/02 04:00:43;;;;;;;7.07;6.30;;;14.70;99.90;;;;;;5072003;28;20032;-56
2023/09/02 04:03:31;;;;;;;8.15;7.30;;;14.70;99.90;;;;;;5072394;28;20032;-55
2023/09/02 04:06:17;;;;;;;8.15;7.38;;;14.70;99.90;;;;;;5088509;28;20047;-52
2023/09/02 04:09:05;;;;;;;9.38;7.00;;;14.60;99.90;;;;;;5073965;28;20043;-50
2023/09/02 04:11:51;;;;;;;13.98;8.20;;;14.60;99.90;;;;;;5090112;28;20028;-50
2023/09/02 04:14:37;;;;;;;8.57;7.72;;;14.50;99.90;;;;;;5088910;28;20472;-50
2023/09/02 04:17:23;;;;;;;8.45;7.68;;;14.50;99.90;;;;;;5088543;28;20020;-52
2023/09/02 04:20:10;;;;;;;8.10;7.30;;;14.50;99.90;;;;;;5095218;28;20093;-52
2023/09/02 04:22:56;;;;;;;8.48;7.40;;;14.50;99.90;;;;;;5069328;28;20044;-51
2023/09/02 04:25:47;;;;;;;8.98;7.07;;;14.50;99.90;;;;;;5055388;28;20024;-50
2023/09/02 04:28:33;;;;;;;7.97;7.18;;;14.40;99.90;;;;;;5055765;28;20078;-52
2023/09/02 04:31:19;;;;;;;7.88;7.18;;;14.50;99.90;;;;;;5070902;28;20103;-54
2023/09/02 04:34:05;;;;;;;8.18;7.38;;;14.50;99.90;;;;;;5083475;28;20035;-54
2023/09/02 04:36:50;;;;;;;7.63;6.68;;;14.60;99.90;;;;;;5075635;28;20064;-49
2023/09/02 04:39:40;;;;;;;7.50;6.70;;;14.60;99.90;;;;;;5087070;28;20036;-50
2023/09/02 04:42:26;;;;;;;8.20;7.15;;;14.70;99.90;;;;;;5089047;28;20105;-50
2023/09/02 04:45:12;;;;;;;7.68;6.90;;;14.70;99.90;;;;;;5081499;28;20087;-52
2023/09/02 04:47:58;;;;;;;7.28;6.57;;;14.70;99.90;;;;;;5082146;28;20102;-54
2023/09/02 04:50:53;;;;;;;8.10;7.30;;;14.70;99.90;;;;;;5080229;28;20035;-53
2023/09/02 04:53:39;;;;;;;7.32;6.65;;;14.70;99.90;;;;;;5090340;28;21547;-54
2023/09/02 04:56:25;;;;;;;7.60;6.90;;;14.70;99.90;;;;;;5089571;28;20051;-54
2023/09/02 04:59:11;;;;;;;9.45;7.35;;;14.60;99.90;;;;;;5089585;28;20107;-47
2023/09/02 05:01:57;;;;;;;7.88;7.00;;;14.60;99.90;;;;;;5089420;28;20106;-51
2023/09/02 05:04:43;;;;;;;7.53;6.82;;;14.60;99.90;;;;;;5073577;28;20025;-54
2023/09/02 05:07:29;;;;;;;8.10;7.00;;;14.60;99.90;;;;;;5071189;28;20027;-54
2023/09/02 05:10:15;;;;;;;7.95;7.25;;;14.60;99.90;;;;;;5078647;28;20376;-56
2023/09/02 05:13:02;;;;;;;7.38;6.68;;;14.60;99.90;;;;;;5083589;28;20025;-54
2023/09/02 05:15:51;;;;;;;8.45;7.53;;;14.60;99.90;;;;;;5094422;28;20465;-52
2023/09/02 05:18:37;;;;;;;7.78;7.05;;;14.50;99.90;;;;;;5087284;28;20085;-50
2023/09/02 05:21:23;;;;;;;8.10;7.40;;;14.60;99.90;;;;;;5095355;28;20024;-53
2023/09/02 05:24:09;;;;;;;8.10;7.30;;;14.70;99.90;;;;;;5085067;28;20036;-57
2023/09/02 05:26:55;;;;;;;8.75;7.95;;;14.70;99.90;;;;;;5088619;28;20099;-54
2023/09/02 05:29:41;;;;;;;8.82;7.93;;;14.70;99.90;;;;;;5091809;28;20104;-52
2023/09/02 05:32:27;;;;;;;8.05;7.18;;;14.70;99.90;;;;;;5093328;28;20548;-55
2023/09/02 05:35:13;;;;;;;10.30;7.20;;;14.70;99.90;;;;;;5092389;28;20035;-52
2023/09/02 05:37:59;;;;;;;8.38;7.30;;;14.80;99.90;;;;;;5093960;28;20153;-54
2023/09/02 05:40:45;;;;;;;8.27;7.47;;;14.90;99.90;;;;;;5093748;28;20423;-56
2023/09/02 05:43:30;;;;;;;8.55;7.75;;;14.90;99.90;;;;;;5093654;28;20032;-56
2023/09/02 05:46:16;;;;;;;7.32;6.63;;;15.00;99.90;;;;;;5079911;28;20412;-57
2023/09/02 05:49:03;;;;;;;8.13;7.32;;;15.00;99.90;;;;;;5073005;28;20754;-56
2023/09/02 05:51:49;;;;;;;8.70;7.88;;;15.10;99.90;;;;;;5091824;28;20024;-55
2023/09/02 05:54:35;;;;;;;7.40;6.70;;;15.20;99.90;;;;;;5086921;28;20040;-56
2023/09/02 05:57:20;;;;;;;8.45;7.65;;;15.30;99.90;;;;;;5087752;28;20038;-57
2023/09/02 06:00:07;;;;;;;9.55;8.20;;;15.40;99.90;;;;;;5091774;28;20028;-57
2023/09/02 06:02:53;;;;;;;9.32;8.48;;;15.50;99.90;;;;;;5078869;28;20092;-53
2023/09/02 06:05:39;;;;;;;10.90;8.43;;;15.40;99.90;;;;;;5092019;28;20501;-52
2023/09/02 06:08:25;;;;;;;9.90;9.00;;;15.40;99.90;;;;;;5091987;28;20115;-57
2023/09/02 06:11:11;;;;;;;9.95;9.02;;;15.50;99.90;;;;;;5091978;28;20657;-56
2023/09/02 06:13:57;;;;;;;9.90;8.90;;;15.50;99.90;;;;;;5091033;28;20039;-56
2023/09/02 06:16:43;;;;;;;10.18;9.27;;;15.60;99.90;;;;;;5081446;28;20426;-50
2023/09/02 06:19:28;;;;;;;12.80;11.55;;;15.60;99.90;;;;;;5079134;28;20111;-56
2023/09/02 06:22:14;;;;;;;11.07;9.93;;;15.60;99.90;;;;;;5097473;28;20108;-56
2023/09/02 06:25:00;;;;;;;10.70;9.70;;;15.80;99.90;;;;;;5086528;28;20428;-54
2023/09/02 06:27:47;;;;;;;11.40;10.30;;;15.80;99.90;;;;;;5085284;28;20384;-58
2023/09/02 06:30:35;;;;;;;11.07;9.98;;;15.80;99.90;;;;;;5093340;28;20051;-56
2023/09/02 06:33:23;;;;;;;11.65;10.45;;;15.90;99.90;;;;;;5091948;28;20107;-54
2023/09/02 06:36:10;;;;;;;12.10;10.90;;;15.90;99.90;;;;;;5090859;28;20047;-50
2023/09/02 06:38:56;;;;;;;13.27;11.98;;;15.80;99.90;;;;;;5091775;28;20057;-52
2023/09/02 06:41:42;;;;;;;12.55;11.35;;;15.80;99.90;;;;;;5092053;28;20024;-56
2023/09/02 06:44:28;;;;;;;14.45;12.90;;;15.90;99.90;;;;;;5082834;28;20024;-54
2023/09/02 06:47:14;;;;;;;14.65;13.15;;;16.00;99.90;;;;;;5092330;28;20040;-54
2023/09/02 06:50:00;;;;;;;14.32;12.52;;;16.10;99.90;;;;;;5095526;28;20101;-56
2023/09/02 06:52:46;;;;;;;15.15;13.55;;;16.10;99.90;;;;;;5085090;28;20035;-55
2023/09/02 06:55:32;;;;;;;15.50;13.90;;;16.20;99.90;;;;;;5091257;28;20024;-56
2023/09/02 06:58:18;;;;;;;15.65;13.55;;;16.30;99.90;;;;;;5079932;28;20027;-55
2023/09/02 07:01:04;;;;;;;15.55;13.90;;;16.40;99.90;;;;;;5065821;28;20103;-55
2023/09/02 07:03:50;;;;;;;18.15;13.90;;;16.60;99.90;;;;;;5081738;28;20032;-55
2023/09/02 07:06:36;;;;;;;17.15;15.43;;;16.70;99.90;;;;;;5083806;28;20027;-51
2023/09/02 07:09:22;;;;;;;16.58;14.88;;;16.70;99.90;;;;;;5081384;28;20024;-54
2023/09/02 07:12:08;;;;;;;17.25;15.45;;;16.60;99.90;;;;;;5069459;28;20396;-57
2023/09/02 07:14:54;;;;;;;15.98;14.27;;;16.70;99.90;;;;;;5078628;28;20535;-53
2023/09/02 07:17:40;;;;;;;15.50;13.90;;;16.80;99.90;;;;;;5064652;28;20028;-56
2023/09/02 07:20:26;;;;;;;17.17;15.45;;;17.00;99.90;;;;;;5081717;28;20024;-54
2023/09/02 07:23:12;;;;;;;15.30;13.90;;;17.10;99.90;;;;;;5081159;28;20032;-57
2023/09/02 07:26:04;;;;;;;15.15;13.02;;;17.20;99.90;;;;;;5102572;28;20499;-55
2023/09/02 07:28:50;;;;;;;15.35;13.85;;;17.20;99.90;;;;;;5081548;28;20408;-58
2023/09/02 07:31:36;;;;;;;14.52;13.13;;;17.20;99.90;;;;;;5084788;28;20086;-56
2023/09/02 07:34:22;;;;;;;13.05;11.75;;;17.30;99.90;;;;;;5088633;28;20048;-52
2023/09/02 07:37:08;;;;;;;13.57;12.25;;;17.40;99.90;;;;;;5089482;28;20485;-54
2023/09/02 07:39:54;;;;;;;15.10;11.75;;;17.60;99.90;;;;;;5088373;28;20444;-54
2023/09/02 07:42:40;;;;;;;13.07;11.77;;;17.80;99.90;;;;;;5070310;28;20028;-52
2023/09/02 07:45:26;;;;;;;13.65;12.35;;;17.80;99.90;;;;;;5071633;28;20115;-53
2023/09/02 07:48:12;;;;;;;13.23;11.05;;;17.80;99.90;;;;;;5089033;28;20111;-51
2023/09/02 07:51:00;;;;;;;13.20;11.90;;;17.80;99.90;;;;;;5082694;28;20035;-53
2023/09/02 07:53:46;;;;;;;15.15;12.75;;;18.00;99.90;;;;;;5073050;28;20524;-53
2023/09/02 07:56:32;;;;;;;13.52;12.20;;;17.90;99.90;;;;;;5089579;28;20122;-54
2023/09/02 07:59:18;;;;;;;13.10;11.80;;;17.90;99.90;;;;;;5090045;28;20028;-49
2023/09/02 08:02:04;;;;;;;13.40;11.95;;;18.00;99.90;;;;;;5086490;28;20099;-55
2023/09/02 08:04:49;;;;;;;16.67;15.00;;;18.30;99.90;;;;;;5082033;28;20059;-56
2023/09/02 08:07:37;;;;;;;13.40;12.10;;;18.40;99.90;;;;;;5077547;28;20028;-58
2023/09/02 08:10:23;;;;;;;13.40;12.00;;;18.50;99.90;;;;;;5071210;28;20036;-58
2023/09/02 08:13:09;;;;;;;13.98;12.50;;;18.50;99.90;;;;;;5085253;28;20116;-57
2023/09/02 08:15:55;;;;;;;13.18;11.77;;;18.40;99.90;;;;;;5075373;28;20028;-55
2023/09/02 08:18:41;;;;;;;12.70;11.48;;;18.50;99.90;;;;;;5081613;28;20024;-55
2023/09/02 08:21:27;;;;;;;18.58;15.38;;;18.70;99.90;;;;;;5088069;28;20132;-57
2023/09/02 08:24:13;;;;;;;13.77;12.20;;;18.90;99.90;;;;;;5087422;28;20107;-52
2023/09/02 08:26:59;;;;;;;13.68;11.77;;;19.00;99.90;;;;;;5067115;28;20055;-56
2023/09/02 08:29:45;;;;;;;13.65;12.18;;;19.10;99.90;;;;;;5086072;28;20485;-57
2023/09/02 08:32:32;;;;;;;13.15;11.50;;;19.20;99.90;;;;;;5088388;28;20044;-56
2023/09/02 08:35:18;;;;;;;13.45;12.07;;;19.40;99.90;;;;;;5083684;28;20039;-54
2023/09/02 08:38:04;;;;;;;14.25;11.75;;;19.40;99.90;;;;;;5071253;28;20032;-55
2023/09/02 08:40:55;;;;;;;11.98;10.63;;;19.30;99.90;;;;;;5081049;28;20111;-56
2023/09/02 08:43:41;;;;;;;13.07;11.88;;;19.40;99.90;;;;;;5089226;28;20036;-56
2023/09/02 08:46:29;;;;;;;13.75;12.40;;;19.50;99.90;;;;;;5087124;28;20550;-56
2023/09/02 08:49:16;;;;;;;13.05;10.95;;;19.50;99.90;;;;;;5085709;28;20029;-56
2023/09/02 08:52:02;;;;;;;15.20;12.18;;;19.70;99.90;;;;;;5084445;28;20380;-57
2023/09/02 08:54:50;;;;;;;13.00;10.93;;;19.70;99.90;;;;;;5089415;28;20032;-56
2023/09/02 08:57:37;;;;;;;13.48;12.15;;;19.70;99.90;;;;;;5082724;28;20090;-57
2023/09/02 09:00:24;;;;;;;10.77;9.68;;;19.60;99.90;;;;;;5086182;28;20035;-53
2023/09/02 09:03:11;;;;;;;19.70;17.08;;;19.70;99.90;;;;;;5087048;28;20028;-57
2023/09/02 09:06:03;;;;;;;12.07;10.35;;;20.00;99.90;;;;;;5092087;28;20482;-55
2023/09/02 09:08:54;;;;;;;11.50;10.32;;;20.20;99.90;;;;;;5081771;28;20105;-52
2023/09/02 09:11:42;;;;;;;10.68;9.75;;;20.10;99.90;;;;;;5086594;28;20040;-58
2023/09/02 09:14:32;;;;;;;12.10;9.38;;;19.90;99.90;;;;;;5077265;28;20039;-56
2023/09/02 09:17:18;;;;;;;11.80;9.82;;;19.70;99.90;;;;;;5090079;28;20035;-56
2023/09/02 09:20:05;;;;;;;11.25;10.02;;;19.90;99.90;;;;;;5083452;28;20063;-54
2023/09/02 09:22:52;;;;;;;9.77;8.77;;;19.90;99.90;;;;;;5085338;28;20103;-53
2023/09/02 09:25:38;;;;;;;9.80;8.60;;;19.90;99.90;;;;;;5071832;28;20068;-53
2023/09/02 09:28:24;;;;;;;10.45;9.05;;;20.10;99.90;;;;;;5083383;28;20024;-56
2023/09/02 09:31:17;;;;;;;10.10;9.00;;;20.30;99.90;;;;;;5082276;28;20032;-55
2023/09/02 09:34:03;;;;;;;9.30;8.30;;;20.30;99.90;;;;;;5098155;28;20923;-57
2023/09/02 09:36:57;;;;;;;8.85;7.97;;;20.20;99.90;;;;;;5090746;28;20032;-58
2023/09/02 09:39:45;;;;;;;9.40;8.35;;;20.40;99.90;;;;;;5092133;28;20028;-55
2023/09/02 09:42:35;;;;;;;9.93;8.88;;;20.50;99.90;;;;;;5076312;28;20020;-58
2023/09/02 09:45:21;;;;;;;11.50;7.72;;;20.50;99.90;;;;;;5091857;28;20040;-58
2023/09/02 09:48:10;;;;;;;8.88;8.00;;;20.60;99.90;;;;;;5088377;28;20020;-57
2023/09/02 09:50:56;;;;;;;12.32;7.82;;;20.60;99.90;;;;;;5084621;28;20040;-56
2023/09/02 09:53:46;;;;;;;7.28;6.60;;;20.60;99.90;;;;;;5093592;28;20107;-58
2023/09/02 09:56:32;;;;;;;9.05;5.93;;;20.70;99.90;;;;;;5090803;28;20073;-56
2023/09/02 09:59:18;;;;;;;8.68;6.65;;;20.70;99.90;;;;;;5093153;28;20027;-55
2023/09/02 10:02:05;;;;;;;9.85;6.93;;;20.70;99.90;;;;;;5082719;28;20119;-55
2023/09/02 10:04:55;;;;;;;8.95;6.15;;;20.80;99.90;;;;;;5091433;28;20495;-56
2023/09/02 10:07:41;;;;;;;7.65;6.07;;;20.90;99.90;;;;;;5077130;28;20016;-56
2023/09/02 10:10:30;;;;;;;7.07;5.03;;;21.20;99.90;;;;;;5090446;28;20078;-52
2023/09/02 10:13:17;;;;;;;6.75;5.57;;;21.30;99.90;;;;;;5088069;28;20082;-55
2023/09/02 10:16:03;;;;;;;7.03;5.60;;;21.40;99.90;;;;;;5085926;28;20036;-55
2023/09/02 10:18:50;;;;;;;6.18;5.55;;;21.40;99.90;;;;;;5084340;28;20032;-55
2023/09/02 10:21:38;;;;;;;6.70;6.10;;;21.40;99.90;;;;;;5081161;28;20557;-58
2023/09/02 10:24:28;;;;;;;7.25;5.10;;;21.30;99.90;;;;;;5084819;28;20139;-58
2023/09/02 10:27:23;;;;;;;8.40;5.32;;;21.40;99.90;;;;;;5096084;28;20038;-56
2023/09/02 10:30:17;;;;;;;5.97;4.75;;;21.40;99.90;;;;;;5081840;28;20024;-53
2023/09/02 10:33:33;;;;;;;6.28;4.63;;;21.40;99.90;;;;;;5085599;28;20028;-51
2023/09/02 10:36:23;;;;;;;4.60;4.13;;;21.30;99.90;;;;;;5057524;28;20040;-53
2023/09/02 10:39:21;;;;;;;4.80;4.00;;;21.40;99.90;;;;;;5087888;28;20031;-57
2023/09/02 10:42:09;;;;;;;5.15;4.65;;;21.30;99.90;;;;;;5086876;28;20050;-52
2023/09/02 10:44:55;;;;;;;5.85;4.43;;;21.30;99.90;;;;;;5071925;28;20028;-53
2023/09/02 10:47:42;;;;;;;5.35;4.75;;;21.50;99.90;;;;;;5071662;28;20028;-53
2023/09/02 10:50:29;;;;;;;4.68;4.28;;;21.50;99.90;;;;;;5071429;28;20021;-56
2023/09/02 10:53:15;;;;;;;4.43;3.90;;;21.40;99.90;;;;;;5058243;28;20488;-57
2023/09/02 10:56:02;;;;;;;4.90;4.07;;;21.40;99.90;;;;;;5056180;28;20032;-56
2023/09/02 10:58:48;;;;;;;5.15;3.80;;;21.40;99.90;;;;;;5075647;28;20938;-47
2023/09/02 11:01:50;;;;;;;4.78;4.03;;;21.60;99.90;;;;;;5091993;28;20024;-52
2023/09/02 11:04:43;;;;;;;4.65;3.65;;;21.60;99.90;;;;;;5090631;28;20119;-55
2023/09/02 11:07:29;;;;;;;4.17;3.47;;;21.70;99.90;;;;;;5088903;28;20555;-55
2023/09/02 11:10:17;;;;;;;3.92;3.53;;;21.70;99.90;;;;;;5072161;28;20021;-57
2023/09/02 11:13:05;;;;;;;4.40;3.40;;;21.90;99.60;;;;;;5091755;28;20020;-52
2023/09/02 11:16:17;;;;;;;4.07;3.38;;;21.80;99.80;;;;;;5090853;28;20508;-54
2023/09/02 11:19:08;;;;;;;4.03;3.42;;;21.80;99.90;;;;;;5091474;28;20031;-51
2023/09/02 11:21:57;;;;;;;3.95;3.20;;;22.00;99.50;;;;;;5091494;28;20028;-51
2023/09/02 11:24:48;;;;;;;6.18;3.40;;;22.00;99.70;;;;;;5091138;28;20394;-48
2023/09/02 11:27:45;;;;;;;3.70;3.17;;;22.00;99.60;;;;;;5075151;28;20055;-52
2023/09/02 11:30:34;;;;;;;3.33;2.80;;;22.10;99.40;;;;;;5075934;28;20024;-54
2023/09/02 11:33:20;;;;;;;3.33;3.03;;;22.20;99.90;;;;;;5090695;28;20496;-52
2023/09/02 11:36:10;;;;;;;3.90;3.50;;;22.20;99.60;;;;;;5070979;28;20033;-49
2023/09/02 11:38:56;;;;;;;3.60;3.30;;;22.20;99.30;;;;;;5082003;28;20044;-49
2023/09/02 11:41:42;;;;;;;4.10;3.70;;;22.00;99.90;;;;;;5091624;28;20021;-48
2023/09/02 11:44:28;;;;;;;4.35;3.40;;;21.90;99.90;;;;;;5090351;28;20500;-52
2023/09/02 11:47:14;;;;;;;5.10;3.35;;;21.90;99.90;;;;;;5090014;28;20121;-53
2023/09/02 11:50:00;;;;;;;4.80;3.25;;;22.00;99.90;;;;;;5085023;28;20031;-53
2023/09/02 11:52:52;;;;;;;3.20;2.90;;;22.00;99.90;;;;;;5088947;28;20746;-47
2023/09/02 11:55:39;;;;;;;3.88;2.83;;;22.00;99.90;;;;;;5089974;28;20028;-54
2023/09/02 11:58:25;;;;;;;3.28;2.88;;;22.00;99.90;;;;;;5089537;28;20029;-54
2023/09/02 12:01:13;;;;;;;3.40;3.10;;;22.00;99.90;;;;;;5088764;28;20028;-49
2023/09/02 12:03:59;;;;;;;4.47;3.20;;;22.10;99.90;;;;;;5089155;28;20374;-59
2023/09/02 12:06:46;;;;;;;2.67;2.45;;;22.20;99.90;;;;;;5090340;28;20100;-54
2023/09/02 12:09:35;;;;;;;3.35;2.42;;;22.30;99.90;;;;;;5090299;28;20028;-54
2023/09/02 12:12:21;;;;;;;3.47;2.83;;;22.10;99.90;;;;;;5090481;28;20050;-52
2023/09/02 12:15:17;;;;;;;3.03;2.78;;;22.10;99.90;;;;;;5089950;28;20044;-50
2023/09/02 12:18:04;;;;;;;2.90;2.60;;;22.00;99.90;;;;;;5089934;28;20138;-54
2023/09/02 12:20:51;;;;;;;2.72;2.53;;;22.20;99.90;;;;;;5090002;28;20028;-57
2023/09/02 12:23:37;;;;;;;2.50;2.30;;;22.10;99.90;;;;;;5075207;28;20059;-54
2023/09/02 12:26:23;;;;;;;3.63;2.60;;;22.40;99.90;;;;;;5090083;28;20117;-54
2023/09/02 12:29:21;;;;;;;4.03;2.75;;;22.50;99.90;;;;;;5090589;28;20028;-56
2023/09/02 12:32:08;;;;;;;3.38;2.70;;;22.50;99.90;;;;;;5090640;28;20449;-56
2023/09/02 12:34:54;;;;;;;6.45;5.45;;;22.60;99.70;;;;;;5089125;28;20024;-55
2023/09/02 12:37:40;;;;;;;12.80;11.00;;;22.50;99.30;;;;;;5074341;28;20078;-56
2023/09/02 12:40:26;;;;;;;3.50;3.10;;;22.30;99.70;;;;;;5085802;28;20054;-56
2023/09/02 12:43:23;;;;;;;3.25;2.90;;;22.20;99.90;;;;;;5088965;28;20133;-56
2023/09/02 12:46:09;;;;;;;3.30;2.88;;;22.20;99.90;;;;;;5089417;28;20031;-58
2023/09/02 12:48:56;;;;;;;3.65;2.63;;;22.20;99.90;;;;;;5088878;28;20026;-53
2023/09/02 12:51:42;;;;;;;3.67;3.28;;;22.30;99.90;;;;;;5089235;28;20430;-56
2023/09/02 12:54:29;;;;;;;3.40;3.10;;;22.40;99.80;;;;;;5088359;28;20036;-55
2023/09/02 12:57:15;;;;;;;3.42;3.13;;;22.40;99.90;;;;;;5089084;28;20500;-55
2023/09/02 13:00:03;;;;;;;4.05;3.20;;;22.40;99.70;;;;;;5088418;28;20063;-57
2023/09/02 13:02:52;;;;;;;2.92;2.60;;;22.60;99.70;;;;;;5088949;28;20111;-57
2023/09/02 13:05:37;;;;;;;3.30;2.65;;;22.80;99.90;;;;;;5089378;28;20044;-55
2023/09/02 13:08:23;;;;;;;7.55;2.70;;;23.10;99.90;;;;;;5088938;28;20023;-57
2023/09/02 13:11:09;;;;;;;2.88;2.58;;;23.10;98.90;;;;;;5088894;28;20485;-56
2023/09/02 13:13:55;;;;;;;3.13;2.83;;;23.10;99.40;;;;;;5089498;28;20074;-56
2023/09/02 13:16:42;;;;;;;3.00;2.67;;;23.20;99.30;;;;;;5086656;28;20089;-52
2023/09/02 13:19:29;;;;;;;3.13;2.67;;;23.30;99.50;;;;;;5074083;28;20657;-52
2023/09/02 13:22:15;;;;;;;2.90;2.60;;;23.50;99.20;;;;;;5087746;28;20076;-56
2023/09/02 13:25:02;;;;;;;2.90;2.53;;;23.70;98.60;;;;;;5088970;28;20044;-54
2023/09/02 13:27:48;;;;;;;2.85;2.53;;;23.80;98.10;;;;;;5088989;28;20093;-56
2023/09/02 13:30:34;;;;;;;2.67;2.40;;;23.70;98.40;;;;;;5088632;28;20439;-57
2023/09/02 13:33:20;;;;;;;3.60;2.95;;;23.50;98.20;;;;;;5089311;28;20048;-51
2023/09/02 13:36:06;;;;;;;3.25;2.88;;;23.40;98.70;;;;;;5082556;28;20081;-56
2023/09/02 13:38:52;;;;;;;2.60;2.40;;;23.40;98.80;;;;;;5089052;28;20377;-56
2023/09/02 13:41:38;;;;;;;2.80;2.50;;;23.60;98.80;;;;;;5075127;28;20104;-55
2023/09/02 13:44:24;;;;;;;2.88;2.58;;;23.80;98.30;;;;;;5089708;28;20067;-57
2023/09/02 13:47:13;;;;;;;2.88;2.60;;;23.60;98.80;;;;;;5089746;28;20027;-56
2023/09/02 13:49:59;;;;;;;2.80;2.60;;;23.80;98.00;;;;;;5089893;28;20024;-56
2023/09/02 13:52:50;;;;;;;3.58;2.72;;;23.80;98.40;;;;;;5087004;28;20034;-57
2023/09/02 13:55:39;;;;;;;2.75;2.33;;;23.60;98.20;;;;;;5077651;28;20028;-57
2023/09/02 13:58:33;;;;;;;3.03;2.72;;;23.30;98.80;;;;;;5076335;28;20024;-56
2023/09/02 14:01:19;;;;;;;3.22;2.70;;;23.10;98.90;;;;;;5080907;28;20027;-56
2023/09/02 14:04:05;;;;;;;2.95;2.65;;;22.90;99.80;;;;;;5074436;28;20119;-57
2023/09/02 14:06:51;;;;;;;4.20;2.67;;;22.80;99.90;;;;;;5073533;28;20077;-53
2023/09/02 14:09:42;;;;;;;3.10;2.47;;;22.90;99.40;;;;;;5095441;28;20500;-56
2023/09/02 14:12:29;;;;;;;2.97;2.50;;;22.80;99.50;;;;;;5091979;28;20028;-55
2023/09/02 14:15:16;;;;;;;2.75;2.50;;;22.70;99.60;;;;;;5073911;28;20028;-54
2023/09/02 14:18:02;;;;;;;2.88;2.55;;;22.60;99.90;;;;;;5075050;28;20036;-55
2023/09/02 14:20:48;;;;;;;2.78;2.40;;;22.50;99.90;;;;;;5092707;28;20032;-55
2023/09/02 14:23:34;;;;;;;2.95;2.65;;;22.50;99.90;;;;;;5093330;28;20024;-55